Time;durP1;ratioP1;P1;durP2;ratioP2;P2;SDS_P1;SDS_P2;PMS_P1;PMS_P2;Temp;Humidity;BMP_temperature;BMP_pressure;BME280_temperature;BME280_humidity;BME280_pressure;Samples;Min_cycle;Max_cycle;Signal;HPM_P1;HPM_P2
2023/07/22 00:01:37;;;;;;;20.03;10.37;;;;;;;12.84;100.00;100605.53;5040189;28;20052;-73
2023/07/22 00:04:03;;;;;;;16.63;10.57;;;;;;;12.82;100.00;100591.47;5024244;28;20037;-73
2023/07/22 00:06:28;;;;;;;18.53;10.77;;;;;;;12.83;100.00;100598.47;5039111;28;20029;-73
2023/07/22 00:08:54;;;;;;;16.37;10.63;;;;;;;12.83;100.00;100591.31;5053650;28;20032;-73
2023/07/22 00:11:19;;;;;;;16.50;10.63;;;;;;;12.86;100.00;100600.81;5022521;28;20064;-73
2023/07/22 00:13:45;;;;;;;19.58;12.20;;;;;;;12.77;100.00;100589.34;5038761;28;20051;-73
2023/07/22 00:16:10;;;;;;;20.55;12.20;;;;;;;12.83;100.00;100591.31;5042379;28;20462;-73
2023/07/22 00:18:36;;;;;;;18.23;11.33;;;;;;;12.89;100.00;100582.53;5055573;28;20040;-74
2023/07/22 00:21:02;;;;;;;19.05;10.95;;;;;;;12.89;100.00;100590.56;5006178;28;20100;-73
2023/07/22 00:23:27;;;;;;;19.35;11.68;;;;;;;12.95;100.00;100586.34;5039829;28;20033;-73
2023/07/22 00:25:52;;;;;;;22.27;12.87;;;;;;;12.91;100.00;100585.03;5038132;28;20032;-73
2023/07/22 00:28:18;;;;;;;21.00;12.10;;;;;;;12.89;100.00;100584.38;5033463;28;20104;-73
2023/07/22 00:30:44;;;;;;;20.98;11.75;;;;;;;12.88;100.00;100582.72;5039127;28;20028;-73
2023/07/22 00:33:09;;;;;;;21.87;11.30;;;;;;;12.90;100.00;100572.66;5025123;28;20132;-73
2023/07/22 00:35:35;;;;;;;17.67;11.43;;;;;;;12.89;100.00;100574.50;5038719;28;20023;-73
2023/07/22 00:38:01;;;;;;;17.48;11.27;;;;;;;12.96;100.00;100577.28;5020106;28;20514;-73
2023/07/22 00:40:27;;;;;;;16.88;11.15;;;;;;;12.91;100.00;100568.97;5038940;28;20108;-73
2023/07/22 00:42:53;;;;;;;15.75;10.27;;;;;;;12.87;100.00;100563.13;5036245;28;20040;-73
2023/07/22 00:45:18;;;;;;;17.63;10.38;;;;;;;12.89;100.00;100570.97;5038790;28;20035;-74
2023/07/22 00:47:45;;;;;;;16.60;10.27;;;;;;;12.87;100.00;100568.47;5037582;28;20028;-73
2023/07/22 00:50:10;;;;;;;;;;;;;;;12.86;100.00;100566.81;5033977;28;20056;-73
2023/07/22 00:52:36;;;;;;;;;;;;;;;12.81;100.00;100563.03;5040059;28;19924;-73
2023/07/22 00:55:02;;;;;;;16.63;9.77;;;;;;;12.88;100.00;100566.66;5020934;28;19916;-73
2023/07/22 00:57:28;;;;;;;13.90;8.95;;;;;;;12.86;100.00;100555.28;5042182;28;20032;-73
2023/07/22 00:59:54;;;;;;;13.95;9.20;;;;;;;12.76;100.00;100549.31;5040011;28;20414;-73
2023/07/22 01:02:20;;;;;;;15.45;8.90;;;;;;;12.75;100.00;100547.69;5041963;28;20033;-73
2023/07/22 01:04:46;;;;;;;16.33;8.75;;;;;;;12.71;100.00;100541.00;5040969;28;20296;-73
2023/07/22 01:07:12;;;;;;;13.27;8.27;;;;;;;12.67;100.00;100546.75;5042792;28;20032;-73
2023/07/22 01:09:40;;;;;;;16.35;8.90;;;;;;;12.71;100.00;100541.00;5042305;28;20029;-73
2023/07/22 01:12:06;;;;;;;14.70;8.30;;;;;;;12.71;100.00;100541.84;5044111;28;20037;-73
2023/07/22 01:14:41;;;;;;;16.50;8.65;;;;;;;12.70;100.00;100534.00;5042521;28;20526;-73
2023/07/22 01:17:08;;;;;;;15.00;7.75;;;;;;;12.68;100.00;100545.72;5039437;28;20025;-74
2023/07/22 01:19:34;;;;;;;13.90;7.82;;;;;;;12.74;100.00;100546.03;5033908;28;20222;-73
2023/07/22 01:22:02;;;;;;;14.00;7.53;;;;;;;12.67;100.00;100546.75;5040643;28;20038;-73
2023/07/22 01:24:31;;;;;;;12.90;7.63;;;;;;;12.81;100.00;100546.97;5042973;28;20086;-73
2023/07/22 01:26:57;;;;;;;20.80;9.50;;;;;;;12.75;100.00;100543.16;5029853;28;20040;-73
2023/07/22 01:29:23;;;;;;;13.65;8.18;;;;;;;12.83;100.00;100552.94;5041571;28;20052;-73
2023/07/22 01:31:51;;;;;;;13.88;8.65;;;;;;;12.78;100.00;100547.31;5041088;28;20025;-74
2023/07/22 01:34:17;;;;;;;17.70;9.52;;;;;;;12.72;100.00;100548.88;5019113;28;20117;-74
2023/07/22 01:36:43;;;;;;;14.77;9.73;;;;;;;12.80;100.00;100551.47;5026070;28;20029;-73
2023/07/22 01:39:08;;;;;;;18.10;9.82;;;;;;;12.76;100.00;100554.69;5038246;28;20018;-73
2023/07/22 01:41:34;;;;;;;13.40;8.90;;;;;;;12.89;100.00;100560.25;5041303;28;20576;-72
2023/07/22 01:43:59;;;;;;;15.17;9.33;;;;;;;12.93;100.00;100550.84;5039171;28;20159;-73
2023/07/22 01:46:25;;;;;;;16.92;9.98;;;;;;;12.94;100.00;100552.50;5041075;28;20051;-73
2023/07/22 01:48:51;;;;;;;14.63;7.55;;;;;;;12.94;100.00;100552.50;5039253;28;20040;-74
2023/07/22 01:51:16;;;;;;;12.97;7.37;;;;;;;12.97;100.00;100538.75;5052471;28;20033;-73
2023/07/22 01:53:41;;;;;;;14.00;7.07;;;;;;;12.79;100.00;100538.28;5039779;28;20283;-73
2023/07/22 01:56:07;;;;;;;15.27;7.17;;;;;;;12.77;100.00;100541.13;5043516;28;20037;-73
2023/07/22 01:58:32;;;;;;;13.23;6.77;;;;;;;12.80;100.00;100543.41;5057793;28;20025;-73
2023/07/22 02:00:58;;;;;;;14.25;6.90;;;;;;;12.74;100.00;100525.41;5038915;28;20029;-73
2023/07/22 02:03:23;;;;;;;10.87;6.20;;;;;;;12.84;100.00;100530.50;5041888;28;20032;-73
2023/07/22 02:05:49;;;;;;;19.83;6.57;;;;;;;12.75;100.00;100519.03;5039022;28;20099;-72
2023/07/22 02:08:14;;;;;;;12.03;7.10;;;;;;;12.67;100.00;100514.59;5043783;28;20048;-73
2023/07/22 02:10:39;;;;;;;12.87;6.23;;;;;;;12.63;100.00;100529.34;5041557;28;20044;-75
2023/07/22 02:13:05;;;;;;;13.93;6.03;;;;;;;12.62;100.00;100522.34;5026253;28;20116;-74
2023/07/22 02:15:32;;;;;;;11.23;5.60;;;;;;;12.74;100.00;100535.31;5030092;28;20034;-74
2023/07/22 02:17:57;;;;;;;14.02;6.47;;;;;;;12.72;100.00;100542.69;5026208;28;20029;-75
2023/07/22 02:20:23;;;;;;;14.30;5.85;;;;;;;12.67;100.00;100541.38;5057526;28;20029;-75
2023/07/22 02:22:49;;;;;;;12.63;6.78;;;;;;;12.60;100.00;100543.13;5039385;28;20029;-75
2023/07/22 02:25:14;;;;;;;10.43;5.10;;;;;;;12.54;100.00;100538.47;5040382;28;20490;-75
2023/07/22 02:27:40;;;;;;;9.20;5.18;;;;;;;12.53;100.00;100550.22;5039936;28;20043;-75
2023/07/22 02:30:10;;;;;;;10.98;6.00;;;;;;;12.47;100.00;100564.31;5040560;28;20040;-75
2023/07/22 02:32:39;;;;;;;18.92;5.43;;;;;;;12.53;100.00;100557.41;5056788;28;20025;-74
2023/07/22 02:35:06;;;;;;;12.52;5.80;;;;;;;12.31;100.00;100549.19;5042476;28;20029;-75
2023/07/22 02:37:32;;;;;;;11.18;5.45;;;;;;;12.12;100.00;100545.16;5056998;28;20029;-74
2023/07/22 02:39:58;;;;;;;8.20;5.25;;;;;;;12.13;100.00;100546.81;5038162;28;20083;-75
2023/07/22 02:42:23;;;;;;;9.40;5.63;;;;;;;12.04;100.00;100545.22;5039932;28;20496;-74
2023/07/22 02:44:48;;;;;;;8.03;4.93;;;;;;;12.03;100.00;100544.38;5038708;28;20029;-74
2023/07/22 02:47:14;;;;;;;9.87;4.63;;;;;;;11.93;100.00;100538.41;5040992;28;20064;-74
2023/07/22 02:49:39;;;;;;;9.27;4.40;;;;;;;11.96;100.00;100548.78;5040960;28;20033;-74
2023/07/22 02:52:06;;;;;;;8.70;5.27;;;;;;;12.07;100.00;100550.19;5009105;28;20028;-74
2023/07/22 02:54:39;;;;;;;10.55;5.35;;;;;;;12.07;100.00;100555.56;5057460;28;20029;-74
2023/07/22 02:57:05;;;;;;;10.77;4.85;;;;;;;11.93;100.00;100558.97;5008962;28;20037;-74
2023/07/22 02:59:30;;;;;;;7.40;4.85;;;;;;;11.94;100.00;100561.50;5040040;28;20013;-74
2023/07/22 03:01:57;;;;;;;9.27;4.40;;;;;;;11.92;100.00;100554.66;5037680;28;20044;-74
2023/07/22 03:04:23;;;;;;;6.78;3.72;;;;;;;11.95;100.00;100546.28;5055964;28;20024;-74
2023/07/22 03:06:48;;;;;;;8.48;4.25;;;;;;;11.79;100.00;100542.63;5054596;28;20041;-74
2023/07/22 03:09:14;;;;;;;7.45;3.95;;;;;;;11.80;100.00;100559.53;5043463;28;20033;-74
2023/07/22 03:11:39;;;;;;;8.33;4.20;;;;;;;11.77;100.00;100557.19;5039213;28;20401;-74
2023/07/22 03:14:04;;;;;;;7.27;3.70;;;;;;;11.79;100.00;100558.69;5025249;28;20482;-74
2023/07/22 03:16:31;;;;;;;6.63;3.80;;;;;;;11.79;100.00;100555.19;5052005;28;20504;-74
2023/07/22 03:18:57;;;;;;;8.88;3.95;;;;;;;11.83;100.00;100554.66;5040157;28;20107;-74
2023/07/22 03:21:23;;;;;;;8.33;4.00;;;;;;;11.69;100.00;100550.06;5021243;28;20033;-74
2023/07/22 03:23:49;;;;;;;10.00;4.47;;;;;;;11.79;100.00;100561.34;5021410;28;20048;-74
2023/07/22 03:26:14;;;;;;;9.07;4.18;;;;;;;11.78;100.00;100562.38;5027483;28;20029;-74
2023/07/22 03:28:41;;;;;;;7.30;4.55;;;;;;;11.89;100.00;100574.53;5035691;28;20366;-74
2023/07/22 03:31:08;;;;;;;10.63;4.28;;;;;;;11.98;100.00;100572.66;5039551;28;20103;-74
2023/07/22 03:33:34;;;;;;;10.75;4.65;;;;;;;11.95;100.00;100578.38;5039102;28;20013;-75
2023/07/22 03:36:00;;;;;;;;;;;;;;;12.11;100.00;100580.13;5037683;28;20041;-74
2023/07/22 03:38:25;;;;;;;17.50;4.72;;;;;;;12.09;100.00;100580.28;5023112;28;19959;-74
2023/07/22 03:40:52;;;;;;;11.13;4.03;;;;;;;12.16;100.00;100586.59;5053742;28;20025;-74
2023/07/22 03:43:18;;;;;;;9.65;3.78;;;;;;;12.13;100.00;100588.81;5023212;28;20112;-74
2023/07/22 03:45:44;;;;;;;8.25;4.75;;;;;;;12.01;100.00;100572.31;5024042;28;20135;-74
2023/07/22 03:48:09;;;;;;;12.60;4.07;;;;;;;12.14;100.00;100583.28;5039964;28;20084;-74
2023/07/22 03:50:35;;;;;;;9.25;4.18;;;;;;;12.22;100.00;100585.91;5039535;28;20071;-75
2023/07/22 03:53:00;;;;;;;9.32;4.90;;;;;;;12.25;100.00;100588.22;5037651;28;20099;-75
2023/07/22 03:55:26;;;;;;;7.00;3.83;;;;;;;12.25;100.00;100585.53;5039517;28;20127;-75
2023/07/22 03:57:51;;;;;;;8.30;3.80;;;;;;;12.28;100.00;100588.88;5037184;28;20120;-75
2023/07/22 04:00:17;;;;;;;12.27;3.47;;;;;;;12.35;100.00;100600.53;5056040;28;20052;-75
2023/07/22 04:02:42;;;;;;;6.60;3.33;;;;;;;12.22;100.00;100585.06;5032262;28;20286;-75
2023/07/22 04:05:09;;;;;;;7.37;3.93;;;;;;;12.20;100.00;100593.28;5024224;28;20030;-75
2023/07/22 04:07:34;;;;;;;9.68;3.83;;;;;;;12.20;100.00;100592.44;5040139;28;20136;-75
2023/07/22 04:09:59;;;;;;;5.80;2.80;;;;;;;12.23;100.00;100589.41;5038351;28;20136;-75
2023/07/22 04:12:25;;;;;;;6.67;3.37;;;;;;;12.41;100.00;100602.53;5055450;28;20496;-75
2023/07/22 04:14:50;;;;;;;9.47;3.70;;;;;;;12.35;100.00;100603.22;5053843;28;20025;-75
2023/07/22 04:17:15;;;;;;;9.03;3.90;;;;;;;12.32;100.00;100600.91;5022757;28;20526;-75
2023/07/22 04:19:42;;;;;;;5.63;3.30;;;;;;;12.33;100.00;100607.91;5032055;28;20490;-76
2023/07/22 04:22:08;;;;;;;9.63;3.20;;;;;;;12.41;100.00;100615.91;5020341;28;20415;-76
2023/07/22 04:24:33;;;;;;;8.77;3.20;;;;;;;12.41;100.00;100611.38;5006661;28;20029;-75
2023/07/22 04:27:00;;;;;;;4.20;3.03;;;;;;;12.44;100.00;100599.47;5024512;28;20060;-75
2023/07/22 04:29:26;;;;;;;6.43;3.65;;;;;;;12.49;100.00;100602.44;5040322;28;20059;-75
2023/07/22 04:31:51;;;;;;;6.90;3.27;;;;;;;12.38;100.00;100590.28;5041229;28;20103;-76
2023/07/22 04:34:16;;;;;;;8.17;2.90;;;;;;;12.37;100.00;100590.50;5027297;28;20033;-75
2023/07/22 04:36:43;;;;;;;14.93;4.13;;;;;;;12.40;100.00;100596.31;5027136;28;20060;-75
2023/07/22 04:39:08;;;;;;;;;;;;;;;12.38;100.00;100587.63;5040971;28;20025;-75
2023/07/22 04:41:33;;;;;;;;;;;;;;;12.46;100.00;100595.63;5026449;28;19971;-75
2023/07/22 04:43:59;;;;;;;6.17;2.80;;;;;;;12.51;100.00;100595.06;5041251;28;19917;-75
2023/07/22 04:46:25;;;;;;;6.23;2.53;;;;;;;12.53;100.00;100592.22;5042052;28;20032;-75
2023/07/22 04:48:54;;;;;;;6.80;2.45;;;;;;;12.33;100.00;100575.78;5040383;28;20045;-75
2023/07/22 04:51:19;;;;;;;4.60;2.35;;;;;;;12.43;100.00;100576.38;5047916;28;20031;-75
2023/07/22 04:53:44;;;;;;;4.57;2.70;;;;;;;12.54;100.00;100584.00;5042307;28;20040;-75
2023/07/22 04:56:10;;;;;;;6.57;3.00;;;;;;;12.47;100.00;100588.41;5028890;28;20059;-75
2023/07/22 04:58:35;;;;;;;5.73;2.30;;;;;;;12.40;100.00;100592.81;5042453;28;20476;-75
2023/07/22 05:01:00;;;;;;;6.23;2.73;;;;;;;12.42;100.00;100594.28;5039854;28;20482;-75
2023/07/22 05:03:26;;;;;;;7.17;3.20;;;;;;;12.48;100.00;100595.44;5042023;28;20576;-75
2023/07/22 05:05:52;;;;;;;7.37;3.27;;;;;;;12.59;100.00;100602.22;5041626;28;20059;-76
2023/07/22 05:08:20;;;;;;;10.15;3.25;;;;;;;12.60;100.00;100606.56;5043371;28;20033;-75
2023/07/22 05:10:46;;;;;;;9.38;3.60;;;;;;;12.91;100.00;100601.09;5024218;28;20056;-76
2023/07/22 05:13:11;;;;;;;11.38;3.90;;;;;;;13.20;100.00;100600.31;5033575;28;20052;-76
2023/07/22 05:15:37;;;;;;;7.10;3.57;;;;;;;13.60;100.00;100602.78;5034198;28;20478;-75
2023/07/22 05:18:02;;;;;;;6.53;4.87;;;;;;;13.83;100.00;100602.66;5044442;28;20127;-75
2023/07/22 05:20:27;;;;;;;9.67;3.63;;;;;;;13.91;100.00;100592.66;5041882;28;20041;-75
2023/07/22 05:22:53;;;;;;;9.50;3.63;;;;;;;13.79;100.00;100579.91;5039369;28;20955;-76
2023/07/22 05:25:18;;;;;;;7.57;3.30;;;;;;;13.71;100.00;100570.13;5033222;28;20132;-75
2023/07/22 05:27:43;;;;;;;5.57;3.00;;;;;;;13.57;100.00;100577.16;5043843;28;20064;-76
2023/07/22 05:30:09;;;;;;;6.97;3.23;;;;;;;13.58;100.00;100569.94;5045655;28;20104;-76
2023/07/22 05:32:35;;;;;;;8.07;3.10;;;;;;;13.86;100.00;100584.34;5030491;28;20033;-76
2023/07/22 05:35:04;;;;;;;3.83;2.27;;;;;;;15.02;100.00;100605.75;5043077;28;20032;-77
2023/07/22 05:37:30;;;;;;;4.30;2.83;;;;;;;16.04;100.00;100578.19;5043179;28;20033;-77
2023/07/22 05:39:55;;;;;;;4.70;2.40;;;;;;;16.02;100.00;100553.34;5043292;28;20551;-76
2023/07/22 05:42:20;;;;;;;5.40;2.17;;;;;;;15.94;100.00;100539.22;5029106;28;20029;-76
2023/07/22 05:44:46;;;;;;;7.67;2.87;;;;;;;15.02;100.00;100517.03;5031235;28;20029;-76
2023/07/22 05:47:11;;;;;;;3.03;2.03;;;;;;;14.69;100.00;100523.00;5027467;28;20079;-76
2023/07/22 05:49:37;;;;;;;7.03;2.10;;;;;;;14.57;100.00;100532.63;5009842;28;20036;-75
2023/07/22 05:52:02;;;;;;;6.50;1.80;;;;;;;14.79;100.00;100536.09;5043479;28;20041;-76
2023/07/22 05:54:28;;;;;;;2.55;1.70;;;;;;;15.50;100.00;100541.31;5026694;28;20017;-76
2023/07/22 05:56:54;;;;;;;6.00;2.13;;;;;;;16.63;100.00;100555.09;5009875;28;20824;-76
2023/07/22 05:59:19;;;;;;;5.65;1.67;;;;;;;17.08;100.00;100466.28;5026654;28;20498;-77
2023/07/22 06:01:45;;;;;;;5.20;1.93;;;;;;;17.32;100.00;100379.47;5009997;28;20075;-76
2023/07/22 06:04:10;;;;;;;2.63;1.40;;;;;;;17.64;100.00;100345.22;5026275;28;20029;-77
2023/07/22 06:06:35;;;;;;;2.90;1.30;;;;;;;18.01;100.00;100324.59;5042617;28;20529;-76
2023/07/22 06:09:01;;;;;;;7.13;1.43;;;;;;;18.25;100.00;100190.50;5009643;28;20025;-75
2023/07/22 06:11:28;;;;;;;2.70;1.90;;;;;;;19.22;100.00;100176.06;5042793;28;20033;-77
2023/07/22 06:13:53;;;;;;;4.50;1.30;;;;;;;19.86;100.00;100004.75;5034191;28;20033;-76
2023/07/22 06:16:18;;;;;;;2.93;1.60;;;;;;;20.24;100.00;99942.56;5026353;28;20037;-78
2023/07/22 06:18:44;;;;;;;3.77;1.90;;;;;;;20.24;100.00;99904.63;5026308;28;20032;-78
2023/07/22 06:21:09;;;;;;;5.07;1.53;;;;;;;19.95;100.00;99764.94;5023084;28;20037;-77
2023/07/22 06:23:35;;;;;;;5.18;1.98;;;;;;;18.87;100.00;99730.59;5021419;28;20025;-78
2023/07/22 06:26:00;;;;;;;2.33;2.03;;;;;;;19.14;100.00;99857.16;5025915;28;20132;-77
2023/07/22 06:28:25;;;;;;;3.13;1.43;;;;;;;19.57;100.00;99904.50;5026115;28;20634;-76
2023/07/22 06:30:51;;;;;;;3.07;1.23;;;;;;;20.41;100.00;99800.78;5023584;28;20403;-77
2023/07/22 06:33:16;;;;;;;2.77;1.23;;;;;;;19.85;100.00;99564.34;5025279;28;20077;-77
2023/07/22 06:35:42;;;;;;;2.03;1.30;;;;;;;20.76;100.00;99775.22;5043272;28;20033;-77
2023/07/22 06:38:07;;;;;;;3.67;1.65;;;;;;;20.58;100.00;99719.41;5056040;28;20101;-78
2023/07/22 06:40:33;;;;;;;3.75;1.55;;;;;;;21.14;100.00;99586.22;5041204;28;20414;-76
2023/07/22 06:42:58;;;;;;;2.03;1.25;;;;;;;20.57;100.00;99517.97;5040357;28;20035;-77
2023/07/22 06:45:24;;;;;;;4.38;1.20;;;;;;;19.37;100.00;99456.53;5019198;28;20066;-78
2023/07/22 06:47:50;;;;;;;1.65;1.00;;;;;;;19.96;100.00;99761.94;5055906;28;20040;-77
2023/07/22 06:50:15;;;;;;;3.60;1.10;;;;;;;20.37;100.00;99854.69;5044816;28;20036;-77
2023/07/22 06:52:40;;;;;;;1.30;0.90;;;;;;;20.02;100.00;99632.81;5039782;28;20792;-77
2023/07/22 06:55:06;;;;;;;4.10;1.13;;;;;;;20.21;100.00;99885.34;5040690;28;20041;-76
2023/07/22 06:57:33;;;;;;;3.00;1.27;;;;;;;20.46;100.00;99792.72;5057299;28;20036;-77
2023/07/22 06:59:58;;;;;;;2.00;0.88;;;;;;;21.57;100.00;99715.53;5038695;28;20091;-77
2023/07/22 07:02:24;;;;;;;2.87;1.20;;;;;;;20.94;100.00;99807.47;5055272;28;20436;-77
2023/07/22 07:04:50;;;;;;;2.40;1.05;;;;;;;21.42;100.00;99701.81;5030816;28;20060;-77
2023/07/22 07:07:16;;;;;;;2.15;1.20;;;;;;;21.32;100.00;99718.81;5041690;28;20051;-77
2023/07/22 07:09:41;;;;;;;;;;;;;;;21.64;98.63;99699.03;5057124;28;20478;-76
2023/07/22 07:12:07;;;;;;;2.85;0.80;;;;;;;22.45;93.08;99600.78;5042202;28;19909;-74
2023/07/22 07:14:33;;;;;;;4.22;1.00;;;;;;;22.16;90.88;99494.38;5040205;28;20029;-75
2023/07/22 07:16:59;;;;;;;1.73;1.15;;;;;;;21.20;93.28;99569.72;5038555;28;20880;-75
2023/07/22 07:19:24;;;;;;;2.33;0.70;;;;;;;20.65;92.59;99460.56;5023526;28;20425;-75
2023/07/22 07:21:50;;;;;;;3.10;0.80;;;;;;;20.61;94.80;99665.50;5024838;28;20029;-74
2023/07/22 07:24:15;;;;;;;1.20;0.80;;;;;;;21.24;97.30;99928.31;5011063;28;20029;-74
2023/07/22 07:26:40;;;;;;;1.93;0.90;;;;;;;20.27;94.44;99542.06;5039726;28;20043;-75
2023/07/22 07:29:06;;;;;;;5.13;1.20;;;;;;;19.67;100.00;99799.13;5025996;28;20041;-74
2023/07/22 07:31:31;;;;;;;3.07;1.20;;;;;;;19.51;98.89;99737.66;5040539;28;20520;-74
2023/07/22 07:33:57;;;;;;;1.63;0.80;;;;;;;18.53;100.00;99883.69;5054354;28;20053;-74
2023/07/22 07:36:22;;;;;;;3.90;0.87;;;;;;;17.82;100.00;99845.00;5042009;28;20174;-74
2023/07/22 07:38:47;;;;;;;4.67;1.27;;;;;;;16.46;100.00;99864.94;5039441;28;20033;-74
2023/07/22 07:41:13;;;;;;;5.53;1.00;;;;;;;16.36;100.00;100268.66;5041207;28;20094;-73
2023/07/22 07:43:42;;;;;;;3.08;0.98;;;;;;;16.60;100.00;100476.50;5038639;28;20138;-74
2023/07/22 07:46:17;;;;;;;1.70;1.00;;;;;;;17.91;100.00;100387.22;5015045;28;20037;-74
2023/07/22 07:48:44;;;;;;;2.50;1.13;;;;;;;18.76;100.00;100316.34;5041127;28;20041;-76
2023/07/22 07:51:09;;;;;;;0.90;0.75;;;;;;;19.77;100.00;100156.78;5041772;28;20029;-76
2023/07/22 07:53:35;;;;;;;1.90;1.40;;;;;;;19.33;100.00;99850.47;5024450;28;20041;-76
2023/07/22 07:56:00;;;;;;;2.67;0.90;;;;;;;17.59;100.00;99814.16;5042411;28;20544;-76
2023/07/22 07:58:25;;;;;;;2.40;0.80;;;;;;;17.86;100.00;100129.69;5056258;28;20494;-77
2023/07/22 08:00:51;;;;;;;1.20;0.67;;;;;;;18.69;100.00;99993.00;5054283;28;20490;-76
2023/07/22 08:03:16;;;;;;;2.73;1.13;;;;;;;19.33;100.00;99926.25;5008049;28;20506;-76
2023/07/22 08:05:41;;;;;;;0.87;0.63;;;;;;;19.47;100.00;99894.31;5038826;28;20029;-77
2023/07/22 08:08:07;;;;;;;1.57;0.50;;;;;;;19.75;100.00;99949.56;5042320;28;20029;-74
2023/07/22 08:10:32;;;;;;;1.10;0.67;;;;;;;19.85;96.94;99716.00;5043214;28;20056;-74
2023/07/22 08:12:58;;;;;;;2.77;1.67;;;;;;;19.52;92.43;99446.94;5052156;28;20043;-74
2023/07/22 08:15:23;;;;;;;2.15;0.95;;;;;;;20.31;94.36;99787.09;5043648;28;20577;-74
2023/07/22 08:17:48;;;;;;;1.03;0.60;;;;;;;20.61;90.27;99605.88;5058016;28;20517;-75
2023/07/22 08:20:14;;;;;;;2.27;0.77;;;;;;;20.34;88.16;99453.22;5043184;28;20162;-78
2023/07/22 08:22:39;;;;;;;6.63;1.02;;;;;;;20.55;89.55;99699.03;5059656;28;20111;-74
2023/07/22 08:25:05;;;;;;;1.53;0.80;;;;;;;20.69;87.21;99554.94;5037563;28;20225;-75
2023/07/22 08:27:30;;;;;;;1.80;0.90;;;;;;;21.44;87.18;99772.97;5044187;28;20037;-75
2023/07/22 08:29:56;;;;;;;2.17;0.70;;;;;;;21.64;83.71;99552.34;5040549;28;20036;-75
2023/07/22 08:32:21;;;;;;;0.83;0.73;;;;;;;21.76;80.76;99381.81;5037803;28;20033;-76
2023/07/22 08:34:46;;;;;;;2.70;0.90;;;;;;;21.39;77.59;99089.59;5043657;28;20037;-74
2023/07/22 08:37:12;;;;;;;6.03;0.93;;;;;;;22.14;78.65;99428.59;5044133;28;20025;-74
2023/07/22 08:39:37;;;;;;;4.10;1.17;;;;;;;20.58;76.93;98868.09;5044957;28;20497;-74
2023/07/22 08:42:04;;;;;;;2.78;1.15;;;;;;;20.79;81.56;99454.66;5035967;28;20556;-73
2023/07/22 08:44:33;;;;;;;;;;;;;;;21.12;81.67;99505.09;5043450;28;20028;-75
2023/07/22 08:46:59;;;;;;;3.08;1.00;;;;;;;21.52;82.21;99682.06;5035044;28;19920;-75
2023/07/22 08:49:26;;;;;;;3.22;1.23;;;;;;;22.26;80.33;99711.88;5039634;28;20033;-75
2023/07/22 08:51:54;;;;;;;1.92;0.80;;;;;;;21.79;77.10;99343.25;5035129;28;20041;-74
2023/07/22 08:54:20;;;;;;;1.92;1.05;;;;;;;22.71;75.78;99441.13;5043697;28;20112;-74
2023/07/22 08:56:45;;;;;;;4.60;1.02;;;;;;;21.93;76.90;99419.59;5043177;28;20478;-74
2023/07/22 08:59:12;;;;;;;1.17;0.63;;;;;;;21.51;73.61;98988.88;5046318;28;20079;-74
2023/07/22 09:01:39;;;;;;;2.67;0.80;;;;;;;22.49;74.94;99422.34;5043353;28;20029;-74
2023/07/22 09:04:05;;;;;;;2.80;0.90;;;;;;;21.31;74.04;99044.03;5042164;28;20052;-74
2023/07/22 09:06:31;;;;;;;1.35;0.80;;;;;;;20.94;76.59;99273.03;5040344;28;20052;-75
2023/07/22 09:08:57;;;;;;;1.70;0.70;;;;;;;20.40;77.53;99268.69;5028202;28;20485;-74
2023/07/22 09:11:24;;;;;;;2.80;0.80;;;;;;;19.38;77.70;99049.53;5043854;28;20083;-73
2023/07/22 09:13:51;;;;;;;4.22;1.10;;;;;;;18.53;80.94;99143.97;5040320;28;20025;-74
2023/07/22 09:16:18;;;;;;;5.72;1.40;;;;;;;18.61;87.03;99644.63;5031558;28;20033;-74
2023/07/22 09:18:43;;;;;;;1.67;0.73;;;;;;;18.62;87.57;99630.06;5041689;28;20037;-75
2023/07/22 09:21:09;;;;;;;3.20;0.80;;;;;;;18.27;89.52;99647.22;5037335;28;20068;-75
2023/07/22 09:23:36;;;;;;;5.23;0.83;;;;;;;18.39;94.92;99953.34;5058958;28;20048;-75
2023/07/22 09:26:12;;;;;;;1.58;0.70;;;;;;;18.48;95.12;99914.13;5024434;28;20034;-74
2023/07/22 09:28:48;;;;;;;5.05;0.93;;;;;;;18.28;94.95;99806.38;5058476;28;20437;-74
2023/07/22 09:31:13;;;;;;;1.77;0.68;;;;;;;18.13;99.91;100033.75;5024952;28;20034;-75
2023/07/22 09:33:39;;;;;;;2.30;1.03;;;;;;;18.58;96.87;99972.19;5042514;28;20033;-75
2023/07/22 09:36:04;;;;;;;2.33;0.83;;;;;;;19.11;95.63;99993.72;5040791;28;20026;-75
2023/07/22 09:38:30;;;;;;;2.57;0.80;;;;;;;19.46;95.18;100038.84;5041825;28;20043;-74
2023/07/22 09:40:55;;;;;;;0.97;0.80;;;;;;;19.88;92.67;99953.84;5039442;28;20288;-76
2023/07/22 09:43:23;;;;;;;2.90;0.80;;;;;;;19.24;94.71;99922.28;5041478;28;20016;-75
2023/07/22 09:45:48;;;;;;;3.03;0.70;;;;;;;18.51;95.33;99773.09;5056611;28;20549;-74
2023/07/22 09:48:14;;;;;;;2.72;0.80;;;;;;;18.29;100.00;100117.94;5034216;28;20036;-76
2023/07/22 09:50:40;;;;;;;2.15;0.70;;;;;;;18.07;98.49;99861.81;5040053;28;20029;-74
2023/07/22 09:53:06;;;;;;;3.23;0.93;;;;;;;18.97;100.00;100285.28;5043683;28;20030;-74
2023/07/22 09:55:32;;;;;;;;;;;;;;;19.87;98.14;100174.31;5043054;28;20287;-74
2023/07/22 09:58:02;;;;;;;1.00;0.82;;;;;;;18.79;95.95;99776.13;5022595;28;19913;-75
2023/07/22 10:00:33;;;;;;;6.43;1.02;;;;;;;19.08;100.00;100217.91;5042136;28;20039;-73
2023/07/22 10:03:00;;;;;;;1.65;0.88;;;;;;;18.84;100.00;100165.63;5035529;28;20040;-74
2023/07/22 10:05:27;;;;;;;2.85;1.10;;;;;;;18.95;100.00;100279.25;5036662;28;20389;-75
2023/07/22 10:07:54;;;;;;;2.88;0.98;;;;;;;18.65;100.00;100546.06;5035068;28;20490;-74
2023/07/22 10:10:25;;;;;;;2.15;1.25;;;;;;;18.21;100.00;100605.38;5026282;28;20013;-75
2023/07/22 10:12:50;;;;;;;3.55;0.95;;;;;;;18.28;100.00;100586.44;5026842;28;20474;-73
2023/07/22 10:15:17;;;;;;;3.20;1.20;;;;;;;18.32;100.00;100634.44;5042399;28;20036;-74
2023/07/22 10:17:44;;;;;;;1.75;0.90;;;;;;;18.24;100.00;100793.28;5025714;28;20060;-75
2023/07/22 10:20:14;;;;;;;2.58;1.25;;;;;;;18.72;100.00;100631.47;5033283;28;20029;-74
2023/07/22 10:22:44;;;;;;;2.03;0.88;;;;;;;19.50;100.00;100688.94;5037124;28;20036;-75
2023/07/22 10:25:14;;;;;;;1.67;0.80;;;;;;;20.09;100.00;100253.94;5024955;28;20029;-75
2023/07/22 10:27:41;;;;;;;3.25;0.90;;;;;;;20.19;100.00;100443.88;5039235;28;20041;-74
2023/07/22 10:30:10;;;;;;;3.15;0.80;;;;;;;20.20;100.00;100001.03;5041368;28;20114;-76
2023/07/22 10:32:43;;;;;;;4.60;1.00;;;;;;;20.65;100.00;99956.81;5028716;28;20029;-75
2023/07/22 10:35:17;;;;;;;1.73;1.00;;;;;;;20.75;100.00;99920.88;5039005;28;20095;-74
2023/07/22 10:37:45;;;;;;;2.85;1.15;;;;;;;21.92;98.51;100011.13;5030879;28;20029;-74
2023/07/22 10:40:28;;;;;;;1.55;0.70;;;;;;;21.08;94.78;99724.56;5023660;28;20017;-75
2023/07/22 10:42:58;;;;;;;1.20;0.95;;;;;;;21.46;90.37;99583.47;5033572;28;20037;-76
2023/07/22 10:45:28;;;;;;;3.55;0.90;;;;;;;21.56;85.08;99313.88;5040808;28;20029;-76
2023/07/22 10:48:01;;;;;;;2.13;0.73;;;;;;;22.17;85.06;99516.94;5015134;28;20080;-76
2023/07/22 10:50:47;;;;;;;2.63;1.00;;;;;;;21.74;82.91;99383.19;5041895;28;20091;-75
2023/07/22 10:53:25;;;;;;;4.72;1.20;;;;;;;20.78;83.65;99339.94;5023914;28;20099;-74
2023/07/22 10:56:03;;;;;;;1.60;0.80;;;;;;;21.98;80.91;99383.47;5053778;28;20036;-75
2023/07/22 10:58:52;;;;;;;1.95;0.98;;;;;;;22.05;78.01;99280.75;5020052;28;20033;-77
2023/07/22 11:01:24;;;;;;;1.55;0.90;;;;;;;23.06;77.76;99586.44;5030476;28;20056;-74
2023/07/22 11:04:17;;;;;;;1.10;0.88;;;;;;;23.25;77.39;99580.41;5039561;28;20056;-75
2023/07/22 11:06:48;;;;;;;2.05;0.68;;;;;;;21.66;75.04;99127.34;5034879;28;20040;-76
2023/07/22 11:09:34;;;;;;;1.23;0.88;;;;;;;20.05;76.67;98952.38;5041379;28;20028;-77
2023/07/22 11:12:05;;;;;;;1.60;0.70;;;;;;;18.48;82.62;99143.94;5038006;28;20087;-76
2023/07/22 11:14:37;;;;;;;1.73;0.80;;;;;;;17.91;90.09;99570.88;5056573;28;20029;-74
2023/07/22 11:17:04;;;;;;;10.02;1.50;;;;;;;17.41;100.00;100414.06;5037021;28;20047;-73
2023/07/22 11:19:31;;;;;;;2.88;1.40;;;;;;;16.07;100.00;100662.31;5041202;28;20135;-73